Time;durP1;ratioP1;P1;durP2;ratioP2;P2;SDS_P1;SDS_P2;PMS_P1;PMS_P2;Temp;Humidity;BMP_temperature;BMP_pressure;BME280_temperature;BME280_humidity;BME280_pressure;Samples;Min_cycle;Max_cycle;Signal;HPM_P1;HPM_P2
2023/07/10 00:01:02;;;;;;;0.30;0.30;;;;;;;;;;5056712;28;20236;-91
2023/07/10 00:03:31;;;;;;;0.50;0.50;;;;;;;;;;5057325;28;20199;-90
2023/07/10 00:06:01;;;;;;;9.50;1.87;;;;;;;;;;5056918;28;20222;-90
2023/07/10 00:08:35;;;;;;;0.73;0.73;;;;;;;;;;5056607;28;20224;-90
2023/07/10 00:11:04;;;;;;;0.20;0.20;;;;;;;;;;5056382;28;20214;-91
2023/07/10 00:13:33;;;;;;;0.40;0.40;;;;;;;;;;5057498;28;20203;-90
2023/07/10 00:16:03;;;;;;;1.20;1.13;;;;;;;;;;5057605;28;20201;-91
2023/07/10 00:18:36;;;;;;;1.53;1.53;;;;;;;;;;5056541;28;20195;-90
2023/07/10 00:21:05;;;;;;;0.73;0.73;;;;;;;;;;5056902;28;20227;-91
2023/07/10 00:23:35;;;;;;;0.70;0.70;;;;;;;;;;5055564;28;20228;-90
2023/07/10 00:26:11;;;;;;;0.63;0.63;;;;;;;;;;5055896;28;20210;-90
2023/07/10 00:28:43;;;;;;;4.33;3.33;;;;;;;;;;5055682;28;20225;-90
2023/07/10 00:31:13;;;;;;;6.77;2.80;;;;;;;;;;5055307;28;20214;-90
2023/07/10 00:33:47;;;;;;;3.47;1.87;;;;;;;;;;5055036;28;20209;-91
2023/07/10 00:36:26;;;;;;;0.83;0.83;;;;;;;;;;5051672;28;20252;-90
2023/07/10 00:38:56;;;;;;;6.03;2.93;;;;;;;;;;5052038;28;20273;-90
2023/07/10 00:41:27;;;;;;;6.20;1.07;;;;;;;;;;5052393;28;20254;-90
2023/07/10 00:43:57;;;;;;;2.67;1.67;;;;;;;;;;5051584;28;20210;-90
2023/07/10 00:46:32;;;;;;;4.70;2.77;;;;;;;;;;5052030;28;20206;-90
2023/07/10 00:49:07;;;;;;;4.70;2.57;;;;;;;;;;5051614;28;20295;-91
2023/07/10 00:51:38;;;;;;;0.60;0.60;;;;;;;;;;5051969;28;20238;-89
2023/07/10 00:54:15;;;;;;;3.10;2.27;;;;;;;;;;5052086;28;20217;-90
2023/07/10 00:56:45;;;;;;;1.40;1.30;;;;;;;;;;5055441;28;20258;-90
2023/07/10 00:59:23;;;;;;;4.00;2.30;;;;;;;;;;5055607;28;20385;-89
2023/07/10 01:02:11;;;;;;;0.60;0.60;;;;;;;;;;5055452;28;20205;-90
2023/07/10 01:04:40;;;;;;;5.10;1.67;;;;;;;;;;5055888;28;20206;-87
2023/07/10 01:07:09;;;;;;;0.83;0.83;;;;;;;;;;5056207;28;20210;-88
2023/07/10 01:09:40;;;;;;;1.23;1.23;;;;;;;;;;5055745;28;20218;-88
2023/07/10 01:12:09;;;;;;;3.83;2.43;;;;;;;;;;5056003;28;20207;-88
2023/07/10 01:14:38;;;;;;;3.00;1.80;;;;;;;;;;5055733;28;20298;-88
2023/07/10 01:17:07;;;;;;;2.23;1.83;;;;;;;;;;5056169;28;20236;-89
2023/07/10 01:19:37;;;;;;;2.47;0.47;;;;;;;;;;5054972;28;20199;-89
2023/07/10 01:22:09;;;;;;;1.50;1.40;;;;;;;;;;5055046;28;20257;-89
2023/07/10 01:24:38;;;;;;;2.63;1.97;;;;;;;;;;5054957;28;20211;-88
2023/07/10 01:27:11;;;;;;;2.90;1.10;;;;;;;;;;5054921;28;20215;-88
2023/07/10 01:29:42;;;;;;;0.33;0.33;;;;;;;;;;5055243;28;20203;-88
2023/07/10 01:32:12;;;;;;;1.90;0.97;;;;;;;;;;5054998;28;20227;-88
2023/07/10 01:34:48;;;;;;;43.20;1.80;;;;;;;;;;5054829;28;20210;-88
2023/07/10 01:37:18;;;;;;;1.37;1.10;;;;;;;;;;5054412;28;20195;-88
2023/07/10 01:39:48;;;;;;;0.77;0.77;;;;;;;;;;5054929;28;20228;-88
2023/07/10 01:42:16;;;;;;;1.40;1.03;;;;;;;;;;5054648;28;20237;-88
2023/07/10 01:44:46;;;;;;;0.83;0.63;;;;;;;;;;5054061;28;20216;-88
2023/07/10 01:47:15;;;;;;;2.53;1.53;;;;;;;;;;5054699;28;20213;-88
2023/07/10 01:49:49;;;;;;;0.90;0.90;;;;;;;;;;5054043;28;20219;-88
2023/07/10 01:52:20;;;;;;;0.77;0.77;;;;;;;;;;5054167;28;20201;-88
2023/07/10 01:54:49;;;;;;;0.70;0.70;;;;;;;;;;5053661;28;20205;-87
2023/07/10 01:57:23;;;;;;;1.13;1.13;;;;;;;;;;5054193;28;20205;-88
2023/07/10 01:59:51;;;;;;;1.80;1.70;;;;;;;;;;5054158;28;20215;-88
2023/07/10 02:02:20;;;;;;;1.27;1.27;;;;;;;;;;5053809;28;20216;-88
2023/07/10 02:04:49;;;;;;;3.90;1.70;;;;;;;;;;5054115;28;20200;-88
2023/07/10 02:07:19;;;;;;;0.50;0.50;;;;;;;;;;5052924;28;20204;-88
2023/07/10 02:09:48;;;;;;;0.50;0.50;;;;;;;;;;5054125;28;20209;-87
2023/07/10 02:12:16;;;;;;;1.93;1.23;;;;;;;;;;5053551;28;20321;-87
2023/07/10 02:14:46;;;;;;;1.27;1.23;;;;;;;;;;5053737;28;20212;-87
2023/07/10 02:17:14;;;;;;;0.40;0.40;;;;;;;;;;5053746;28;20198;-87
2023/07/10 02:19:43;;;;;;;0.53;0.53;;;;;;;;;;5053759;28;20238;-87
2023/07/10 02:22:11;;;;;;;2.13;0.93;;;;;;;;;;5054043;28;20218;-87
2023/07/10 02:24:42;;;;;;;1.33;1.03;;;;;;;;;;5053383;28;20199;-87
2023/07/10 02:27:10;;;;;;;0.90;0.90;;;;;;;;;;5053380;28;20222;-87
2023/07/10 02:29:39;;;;;;;2.10;1.17;;;;;;;;;;5053454;28;20186;-87
2023/07/10 02:32:08;;;;;;;0.60;0.60;;;;;;;;;;5054222;28;20206;-86
2023/07/10 02:34:37;;;;;;;0.40;0.40;;;;;;;;;;5053431;28;20213;-87
2023/07/10 02:37:05;;;;;;;2.00;1.90;;;;;;;;;;5053481;28;20211;-87
2023/07/10 02:39:34;;;;;;;2.13;1.93;;;;;;;;;;5053644;28;20209;-87
2023/07/10 02:42:04;;;;;;;1.57;1.47;;;;;;;;;;5053570;28;20207;-87
2023/07/10 02:44:32;;;;;;;2.63;1.23;;;;;;;;;;5053374;28;20200;-87
2023/07/10 02:47:01;;;;;;;0.87;0.87;;;;;;;;;;5053001;28;20205;-87
2023/07/10 02:49:29;;;;;;;1.70;0.93;;;;;;;;;;5053470;28;20243;-87
2023/07/10 02:51:58;;;;;;;0.60;0.60;;;;;;;;;;5052977;28;20226;-87
2023/07/10 02:54:27;;;;;;;1.13;1.13;;;;;;;;;;5053118;28;20210;-87
2023/07/10 02:56:55;;;;;;;0.53;0.53;;;;;;;;;;5053551;28;20207;-87
2023/07/10 02:59:28;;;;;;;0.83;0.83;;;;;;;;;;5053135;28;20205;-87
2023/07/10 03:01:56;;;;;;;2.20;1.00;;;;;;;;;;5052783;28;20201;-87
2023/07/10 03:04:25;;;;;;;0.70;0.70;;;;;;;;;;5052701;28;20202;-87
2023/07/10 03:06:53;;;;;;;0.60;0.60;;;;;;;;;;5053105;28;20203;-87
2023/07/10 03:09:22;;;;;;;1.53;1.43;;;;;;;;;;5053549;28;20203;-87
2023/07/10 03:11:50;;;;;;;0.30;0.30;;;;;;;;;;5052738;28;20240;-87
2023/07/10 03:14:19;;;;;;;0.30;0.30;;;;;;;;;;5052763;28;20211;-87
2023/07/10 03:16:50;;;;;;;0.30;0.30;;;;;;;;;;5053109;28;20212;-87
2023/07/10 03:19:18;;;;;;;0.50;0.50;;;;;;;;;;5053390;28;20213;-87
2023/07/10 03:21:47;;;;;;;0.50;0.50;;;;;;;;;;5052742;28;20224;-86
2023/07/10 03:24:15;;;;;;;0.30;0.30;;;;;;;;;;5052561;28;20204;-87
2023/07/10 03:26:44;;;;;;;0.47;0.47;;;;;;;;;;5053131;28;20199;-86
2023/07/10 03:29:13;;;;;;;0.30;0.30;;;;;;;;;;5052320;28;20234;-87
2023/07/10 03:31:42;;;;;;;0.40;0.40;;;;;;;;;;5052451;28;20226;-87
2023/07/10 03:34:13;;;;;;;5.40;1.67;;;;;;;;;;5052554;28;20201;-87
2023/07/10 03:36:41;;;;;;;0.60;0.60;;;;;;;;;;5052491;28;20243;-87
2023/07/10 03:39:12;;;;;;;1.30;1.20;;;;;;;;;;5052178;28;20207;-87
2023/07/10 03:41:40;;;;;;;1.20;1.13;;;;;;;;;;5052393;28;20252;-87
2023/07/10 03:44:10;;;;;;;1.03;0.87;;;;;;;;;;5052447;28;20202;-87
2023/07/10 03:46:39;;;;;;;0.30;0.30;;;;;;;;;;5052441;28;20253;-87
2023/07/10 03:49:07;;;;;;;0.83;0.60;;;;;;;;;;5052064;28;20208;-87
2023/07/10 03:51:37;;;;;;;0.37;0.37;;;;;;;;;;5051975;28;20317;-87
2023/07/10 03:54:07;;;;;;;0.60;0.60;;;;;;;;;;5052050;28;20228;-87
2023/07/10 03:56:36;;;;;;;0.70;0.70;;;;;;;;;;5052687;28;20202;-87
2023/07/10 03:59:08;;;;;;;0.37;0.37;;;;;;;;;;5052399;28;20202;-87
2023/07/10 04:01:36;;;;;;;3.40;0.90;;;;;;;;;;5052066;28;20192;-87
2023/07/10 04:04:05;;;;;;;0.67;0.67;;;;;;;;;;5052170;28;20209;-87
2023/07/10 04:06:34;;;;;;;2.77;1.83;;;;;;;;;;5052828;28;20203;-87
2023/07/10 04:09:04;;;;;;;1.10;1.10;;;;;;;;;;5052433;28;20203;-87
2023/07/10 04:11:33;;;;;;;0.30;0.30;;;;;;;;;;5051467;28;20235;-88
2023/07/10 04:14:01;;;;;;;1.23;1.23;;;;;;;;;;5051760;28;20201;-87
2023/07/10 04:16:30;;;;;;;6.10;4.03;;;;;;;;;;5052130;28;20301;-87
2023/07/10 04:18:59;;;;;;;1.70;1.60;;;;;;;;;;5051493;28;20284;-87
2023/07/10 04:21:29;;;;;;;1.30;1.30;;;;;;;;;;5051195;28;20209;-87
2023/07/10 04:23:58;;;;;;;1.37;1.33;;;;;;;;;;5051407;28;20215;-87
2023/07/10 04:26:29;;;;;;;2.73;2.53;;;;;;;;;;5051571;28;20229;-87
2023/07/10 04:28:58;;;;;;;5.80;4.37;;;;;;;;;;5051860;28;20222;-87
2023/07/10 04:31:26;;;;;;;9.47;4.10;;;;;;;;;;5055526;28;20199;-87
2023/07/10 04:33:55;;;;;;;3.73;3.53;;;;;;;;;;5055715;28;20256;-87
2023/07/10 04:36:24;;;;;;;2.67;2.00;;;;;;;;;;5055643;28;20238;-87
2023/07/10 04:38:52;;;;;;;2.77;2.07;;;;;;;;;;5055509;28;20203;-87
2023/07/10 04:41:22;;;;;;;0.70;0.70;;;;;;;;;;5055494;28;20220;-87
2023/07/10 04:43:52;;;;;;;3.17;2.47;;;;;;;;;;5055382;28;20209;-87
2023/07/10 04:46:21;;;;;;;2.03;1.83;;;;;;;;;;5055641;28;20301;-87
2023/07/10 04:48:50;;;;;;;7.20;1.63;;;;;;;;;;5055374;28;20198;-87
2023/07/10 04:51:19;;;;;;;2.90;2.03;;;;;;;;;;5055685;28;20202;-87
2023/07/10 04:53:48;;;;;;;0.93;0.93;;;;;;;;;;5055404;28;20226;-87
2023/07/10 04:56:18;;;;;;;11.37;8.13;;;;;;;;;;5054579;28;20207;-87
2023/07/10 04:58:53;;;;;;;6.00;5.13;;;;;;;;;;5055020;28;20202;-87
2023/07/10 05:01:22;;;;;;;6.53;5.93;;;;;;;;;;5055460;28;20198;-87
2023/07/10 05:03:51;;;;;;;0.53;0.53;;;;;;;;;;5055101;28;20215;-87
2023/07/10 05:06:20;;;;;;;6.77;6.17;;;;;;;;;;5055413;28;20216;-87
2023/07/10 05:08:49;;;;;;;1.77;1.67;;;;;;;;;;5055269;28;20254;-87
2023/07/10 05:11:18;;;;;;;2.53;2.33;;;;;;;;;;5055275;28;20210;-87
2023/07/10 05:13:46;;;;;;;2.40;2.20;;;;;;;;;;5054497;28;20224;-87
2023/07/10 05:16:16;;;;;;;4.17;3.80;;;;;;;;;;5055666;28;20206;-87
2023/07/10 05:18:45;;;;;;;2.27;2.07;;;;;;;;;;5055587;28;20233;-87
2023/07/10 05:21:13;;;;;;;3.60;2.20;;;;;;;;;;5055245;28;20214;-86
2023/07/10 05:23:42;;;;;;;2.00;1.80;;;;;;;;;;5054987;28;20195;-87
2023/07/10 05:26:12;;;;;;;3.17;3.00;;;;;;;;;;5055219;28;20296;-87
2023/07/10 05:28:41;;;;;;;4.30;3.90;;;;;;;;;;5054893;28;20215;-88
2023/07/10 05:31:11;;;;;;;1.70;1.30;;;;;;;;;;5055745;28;20200;-88
2023/07/10 05:33:41;;;;;;;2.07;1.27;;;;;;;;;;5055531;28;20218;-89
2023/07/10 05:36:11;;;;;;;3.83;1.90;;;;;;;;;;5056263;28;20235;-88
2023/07/10 05:38:48;;;;;;;4.00;1.03;;;;;;;;;;5055947;28;20200;-88
2023/07/10 05:41:16;;;;;;;3.97;1.63;;;;;;;;;;5055347;28;20208;-89
2023/07/10 05:43:45;;;;;;;4.60;2.60;;;;;;;;;;5055571;28;20204;-89
2023/07/10 05:46:14;;;;;;;3.93;2.37;;;;;;;;;;5055836;28;20292;-88
2023/07/10 05:48:45;;;;;;;5.00;2.60;;;;;;;;;;5055009;28;20195;-89
2023/07/10 05:51:16;;;;;;;3.80;1.10;;;;;;;;;;5055782;28;20198;-88
2023/07/10 05:53:44;;;;;;;14.23;7.43;;;;;;;;;;5055859;28;20236;-89
2023/07/10 05:56:16;;;;;;;13.70;2.17;;;;;;;;;;5055375;28;20201;-83
2023/07/10 05:58:45;;;;;;;3.70;2.00;;;;;;;;;;5056760;28;20224;-88
2023/07/10 06:01:13;;;;;;;6.70;2.37;;;;;;;;;;5057270;28;20203;-89
2023/07/10 06:03:42;;;;;;;5.63;1.03;;;;;;;;;;5058242;28;20197;-89
2023/07/10 06:06:14;;;;;;;0.97;0.90;;;;;;;;;;5059685;28;20196;-89
2023/07/10 06:08:45;;;;;;;3.03;2.10;;;;;;;;;;5059447;28;20328;-90
2023/07/10 06:11:16;;;;;;;5.07;2.10;;;;;;;;;;5061475;28;20201;-89
2023/07/10 06:13:44;;;;;;;8.60;3.60;;;;;;;;;;5059241;28;20235;-87
2023/07/10 06:16:16;;;;;;;1.80;1.33;;;;;;;;;;5059903;28;20200;-89
2023/07/10 06:18:46;;;;;;;1.10;1.10;;;;;;;;;;5058854;28;20213;-89
2023/07/10 06:21:22;;;;;;;1.33;0.90;;;;;;;;;;5059898;28;20204;-89
2023/07/10 06:23:52;;;;;;;9.23;2.90;;;;;;;;;;5058678;28;20207;-89
2023/07/10 06:26:20;;;;;;;9.53;2.80;;;;;;;;;;5058415;28;20212;-89
2023/07/10 06:28:49;;;;;;;8.47;3.07;;;;;;;;;;5061011;28;20305;-88
2023/07/10 06:31:18;;;;;;;12.40;3.60;;;;;;;;;;5058998;28;20205;-88
2023/07/10 06:33:46;;;;;;;2.37;1.90;;;;;;;;;;5055913;28;20267;-88
2023/07/10 06:36:15;;;;;;;3.40;2.10;;;;;;;;;;5054636;28;20241;-89
2023/07/10 06:38:45;;;;;;;7.33;1.67;;;;;;;;;;5055220;28;20212;-89
2023/07/10 06:41:14;;;;;;;7.93;3.20;;;;;;;;;;5055452;28;20193;-89
2023/07/10 06:43:43;;;;;;;9.17;2.10;;;;;;;;;;5057099;28;20200;-90
2023/07/10 06:46:11;;;;;;;4.20;1.70;;;;;;;;;;5068009;28;20205;-89
2023/07/10 06:48:40;;;;;;;0.60;0.60;;;;;;;;;;5064768;28;20233;-90
2023/07/10 06:51:09;;;;;;;3.13;2.13;;;;;;;;;;5055527;28;20235;-88
2023/07/10 06:53:39;;;;;;;3.37;2.03;;;;;;;;;;5054932;28;20226;-89
2023/07/10 06:56:12;;;;;;;5.93;2.67;;;;;;;;;;5055326;28;20234;-89
2023/07/10 06:58:40;;;;;;;5.57;1.83;;;;;;;;;;5051861;28;20208;-86
2023/07/10 07:01:09;;;;;;;6.37;2.10;;;;;;;;;;5053136;28;20206;-86
2023/07/10 07:03:40;;;;;;;7.33;2.60;;;;;;;;;;5054013;28;20235;-89
2023/07/10 07:06:09;;;;;;;3.83;2.23;;;;;;;;;;5054693;28;20198;-90
2023/07/10 07:08:37;;;;;;;9.60;2.67;;;;;;;;;;5055460;28;20210;-90
2023/07/10 07:11:06;;;;;;;2.07;1.40;;;;;;;;;;5054884;28;20205;-89
2023/07/10 07:13:36;;;;;;;3.17;1.57;;;;;;;;;;5055406;28;20275;-89
2023/07/10 07:16:05;;;;;;;3.77;1.60;;;;;;;;;;5053699;28;20220;-90
2023/07/10 07:18:34;;;;;;;2.57;2.20;;;;;;;;;;5054985;28;20195;-89
2023/07/10 07:21:03;;;;;;;7.57;2.70;;;;;;;;;;5054333;28;20216;-89
2023/07/10 07:23:31;;;;;;;6.83;2.17;;;;;;;;;;5053297;28;20204;-89
2023/07/10 07:26:00;;;;;;;6.10;2.83;;;;;;;;;;5053721;28;20192;-89
2023/07/10 07:28:28;;;;;;;8.03;2.43;;;;;;;;;;5054011;28;20240;-90
2023/07/10 07:31:03;;;;;;;3.43;2.17;;;;;;;;;;5053400;28;20300;-92
2023/07/10 07:33:34;;;;;;;1.70;1.43;;;;;;;;;;5053736;28;20231;-89
2023/07/10 07:36:04;;;;;;;1.97;1.77;;;;;;;;;;5053538;28;20253;-89
2023/07/10 07:38:33;;;;;;;3.97;0.70;;;;;;;;;;5054486;28;20232;-90
2023/07/10 07:41:02;;;;;;;7.83;2.17;;;;;;;;;;5053230;28;20202;-89
2023/07/10 07:43:30;;;;;;;4.10;2.00;;;;;;;;;;5053111;28;20248;-89
2023/07/10 07:45:59;;;;;;;2.67;1.30;;;;;;;;;;5053352;28;20300;-89
2023/07/10 07:48:29;;;;;;;3.00;2.17;;;;;;;;;;5053636;28;20210;-89
2023/07/10 07:50:59;;;;;;;3.37;2.50;;;;;;;;;;5053402;28;20248;-89
2023/07/10 07:53:27;;;;;;;6.70;1.80;;;;;;;;;;5053768;28;20242;-90
2023/07/10 07:55:56;;;;;;;1.03;1.00;;;;;;;;;;5053507;28;20205;-89
2023/07/10 07:58:24;;;;;;;1.73;1.43;;;;;;;;;;5053659;28;20236;-90
2023/07/10 08:00:53;;;;;;;8.47;2.83;;;;;;;;;;5053315;28;20203;-89
2023/07/10 08:03:25;;;;;;;3.77;2.13;;;;;;;;;;5049794;28;20214;-85
2023/07/10 08:05:56;;;;;;;1.30;1.20;;;;;;;;;;5048443;28;20202;-86
2023/07/10 08:08:27;;;;;;;4.40;1.97;;;;;;;;;;5052726;28;20202;-86
2023/07/10 08:10:55;;;;;;;4.43;2.33;;;;;;;;;;5049991;28;20204;-85
2023/07/10 08:13:26;;;;;;;3.10;1.73;;;;;;;;;;5051718;28;20265;-86
2023/07/10 08:15:55;;;;;;;2.80;1.30;;;;;;;;;;5051577;28;20198;-85
2023/07/10 08:18:26;;;;;;;5.40;2.07;;;;;;;;;;5050229;28;20203;-85
2023/07/10 08:21:02;;;;;;;5.20;1.93;;;;;;;;;;5051171;28;20224;-86
2023/07/10 08:23:31;;;;;;;6.47;2.20;;;;;;;;;;5051170;28;20250;-86
2023/07/10 08:26:00;;;;;;;2.80;0.93;;;;;;;;;;5051496;28;20210;-83
2023/07/10 08:28:29;;;;;;;7.60;5.33;;;;;;;;;;5051876;28;20226;-85
2023/07/10 08:30:57;;;;;;;1.83;1.60;;;;;;;;;;5052067;28;20339;-86
2023/07/10 08:33:27;;;;;;;2.93;1.63;;;;;;;;;;5051984;28;20203;-89
2023/07/10 08:35:56;;;;;;;1.57;1.57;;;;;;;;;;5052192;28;20284;-89
2023/07/10 08:38:28;;;;;;;3.87;2.27;;;;;;;;;;5048623;28;20202;-87
2023/07/10 08:41:01;;;;;;;3.57;1.30;;;;;;;;;;5049553;28;20211;-87
2023/07/10 08:43:31;;;;;;;4.43;1.70;;;;;;;;;;5048285;28;20221;-87
2023/07/10 08:46:03;;;;;;;9.80;3.30;;;;;;;;;;5044876;28;20207;-87
2023/07/10 08:48:38;;;;;;;6.73;1.70;;;;;;;;;;5037818;28;20263;-87
2023/07/10 08:51:14;;;;;;;1.00;0.80;;;;;;;;;;5047611;28;20212;-87
2023/07/10 08:53:46;;;;;;;4.70;1.17;;;;;;;;;;5045680;28;20209;-87
2023/07/10 08:56:21;;;;;;;4.33;1.63;;;;;;;;;;5049680;28;20199;-87
2023/07/10 08:58:49;;;;;;;1.73;1.17;;;;;;;;;;5049375;28;20215;-88
2023/07/10 09:01:23;;;;;;;2.00;1.00;;;;;;;;;;5050201;28;20217;-88
2023/07/10 09:03:55;;;;;;;1.77;0.97;;;;;;;;;;5050107;28;20212;-87
2023/07/10 09:06:28;;;;;;;2.27;2.10;;;;;;;;;;5051573;28;20213;-87
2023/07/10 09:09:00;;;;;;;0.83;0.43;;;;;;;;;;5049063;28;20203;-87
2023/07/10 09:11:29;;;;;;;3.90;1.07;;;;;;;;;;5047521;28;20212;-86
2023/07/10 09:14:02;;;;;;;1.00;0.90;;;;;;;;;;5046015;28;20211;-86
2023/07/10 09:16:31;;;;;;;6.30;2.33;;;;;;;;;;5047428;28;20241;-87
2023/07/10 09:19:03;;;;;;;2.63;1.37;;;;;;;;;;5050043;28;20204;-87
2023/07/10 09:21:33;;;;;;;8.20;1.67;;;;;;;;;;5053264;28;20202;-87
2023/07/10 09:24:04;;;;;;;4.07;1.13;;;;;;;;;;5052352;28;20206;-87
2023/07/10 09:26:38;;;;;;;3.13;0.97;;;;;;;;;;5046384;28;20228;-87
2023/07/10 09:29:25;;;;;;;4.13;2.10;;;;;;;;;;5048244;28;20209;-88
2023/07/10 09:31:56;;;;;;;2.83;1.43;;;;;;;;;;5038945;28;20188;-87
2023/07/10 09:34:28;;;;;;;1.97;1.40;;;;;;;;;;5050713;28;20225;-87
2023/07/10 09:36:58;;;;;;;4.47;1.80;;;;;;;;;;5055576;28;20296;-88
2023/07/10 09:39:29;;;;;;;6.37;1.47;;;;;;;;;;5052312;28;20202;-86
2023/07/10 09:41:59;;;;;;;5.20;1.80;;;;;;;;;;5050530;28;20258;-87
2023/07/10 09:44:34;;;;;;;1.43;1.00;;;;;;;;;;5054027;28;20196;-87
2023/07/10 09:47:09;;;;;;;1.13;0.70;;;;;;;;;;5043841;28;20215;-87
2023/07/10 09:49:43;;;;;;;2.87;1.37;;;;;;;;;;5050635;28;20208;-85
2023/07/10 09:52:18;;;;;;;0.40;0.40;;;;;;;;;;5049378;28;20209;-86
2023/07/10 09:54:48;;;;;;;0.73;0.63;;;;;;;;;;5051470;28;20344;-86
2023/07/10 09:57:18;;;;;;;2.57;1.43;;;;;;;;;;5041892;28;20280;-84
2023/07/10 09:59:51;;;;;;;3.70;1.73;;;;;;;;;;5050219;28;20217;-86
2023/07/10 10:02:21;;;;;;;2.67;1.90;;;;;;;;;;5052606;28;20263;-86
2023/07/10 10:04:54;;;;;;;4.97;1.90;;;;;;;;;;5053198;28;20228;-86
2023/07/10 10:07:23;;;;;;;4.73;2.57;;;;;;;;;;5050828;28;20260;-85
2023/07/10 10:10:10;;;;;;;2.30;2.03;;;;;;;;;;5051145;28;20209;-86
2023/07/10 10:12:40;;;;;;;3.70;1.60;;;;;;;;;;5047332;28;20206;-86
2023/07/10 10:15:16;;;;;;;3.80;2.20;;;;;;;;;;5044241;28;20219;-86
2023/07/10 10:17:45;;;;;;;0.97;0.97;;;;;;;;;;5053421;28;20212;-86
2023/07/10 10:20:19;;;;;;;6.37;2.87;;;;;;;;;;5052528;28;20207;-86
2023/07/10 10:22:48;;;;;;;5.37;2.40;;;;;;;;;;5044992;28;20206;-86
2023/07/10 10:25:17;;;;;;;1.60;1.50;;;;;;;;;;5042796;28;20190;-86
2023/07/10 10:27:52;;;;;;;15.73;2.30;;;;;;;;;;5049345;28;20229;-85
2023/07/10 10:30:27;;;;;;;2.53;1.87;;;;;;;;;;5041118;28;20212;-86
2023/07/10 10:32:59;;;;;;;5.70;3.20;;;;;;;;;;5051992;28;20217;-86
2023/07/10 10:35:31;;;;;;;2.30;1.43;;;;;;;;;;5044577;28;20239;-86
2023/07/10 10:38:04;;;;;;;3.97;2.33;;;;;;;;;;5048170;28;20319;-87
2023/07/10 10:40:42;;;;;;;4.27;2.47;;;;;;;;;;5041589;28;20213;-88
2023/07/10 10:43:29;;;;;;;3.33;2.03;;;;;;;;;;5052161;28;20233;-86
2023/07/10 10:46:02;;;;;;;6.40;2.10;;;;;;;;;;5052364;28;20210;-87
2023/07/10 10:48:33;;;;;;;5.73;2.13;;;;;;;;;;5054009;28;20233;-87
2023/07/10 10:51:05;;;;;;;5.20;2.83;;;;;;;;;;5053202;28;20202;-87
2023/07/10 10:53:44;;;;;;;2.27;1.70;;;;;;;;;;5053138;28;20186;-87
2023/07/10 10:56:22;;;;;;;3.37;2.07;;;;;;;;;;5053002;28;20248;-87
2023/07/10 10:58:56;;;;;;;2.07;1.87;;;;;;;;;;5053336;28;20304;-86
2023/07/10 11:01:37;;;;;;;4.03;2.30;;;;;;;;;;5053136;28;20204;-87
2023/07/10 11:04:17;;;;;;;4.03;2.37;;;;;;;;;;5053368;28;20194;-87
2023/07/10 11:06:48;;;;;;;1.30;1.20;;;;;;;;;;5053478;28;20279;-87
2023/07/10 11:09:18;;;;;;;2.10;1.27;;;;;;;;;;5052853;28;20206;-87
2023/07/10 11:12:00;;;;;;;5.93;2.63;;;;;;;;;;5053765;28;20229;-87
2023/07/10 11:14:30;;;;;;;2.83;1.67;;;;;;;;;;5049059;28;20281;-88
2023/07/10 11:16:59;;;;;;;1.80;1.70;;;;;;;;;;5044419;28;20228;-88
2023/07/10 11:19:32;;;;;;;3.50;1.60;;;;;;;;;;5043384;28;20295;-87
2023/07/10 11:22:11;;;;;;;3.53;1.70;;;;;;;;;;5051601;28;20204;-87
2023/07/10 11:24:49;;;;;;;5.43;2.43;;;;;;;;;;5050339;28;20212;-87
2023/07/10 11:27:21;;;;;;;1.63;1.53;;;;;;;;;;5051677;28;20307;-86
2023/07/10 11:29:56;;;;;;;1.27;1.17;;;;;;;;;;5044957;28;20215;-85
2023/07/10 11:32:26;;;;;;;1.23;1.13;;;;;;;;;;5046686;28;20297;-84
2023/07/10 11:35:14;;;;;;;0.70;0.70;;;;;;;;;;5043906;28;20269;-86
2023/07/10 11:38:04;;;;;;;6.97;2.90;;;;;;;;;;5045027;28;20192;-86
2023/07/10 11:40:44;;;;;;;3.20;1.57;;;;;;;;;;5048150;28;20208;-86
2023/07/10 11:43:32;;;;;;;2.67;1.07;;;;;;;;;;5047801;28;20202;-87
2023/07/10 11:46:08;;;;;;;2.50;1.70;;;;;;;;;;5046142;28;20198;-87
2023/07/10 11:48:41;;;;;;;4.87;1.60;;;;;;;;;;5039824;28;20204;-88
2023/07/10 11:51:24;;;;;;;1.43;1.37;;;;;;;;;;5047748;28;20226;-88
2023/07/10 11:54:09;;;;;;;5.30;2.27;;;;;;;;;;5048517;28;20216;-88
2023/07/10 11:57:00;;;;;;;1.47;0.73;;;;;;;;;;5053421;28;20231;-89
2023/07/10 11:59:32;;;;;;;2.43;1.50;;;;;;;;;;5053737;28;20205;-90
2023/07/10 12:02:02;;;;;;;7.43;2.27;;;;;;;;;;5045277;28;20211;-90
2023/07/10 12:04:33;;;;;;;2.17;1.97;;;;;;;;;;5053723;28;20212;-87
2023/07/10 12:07:06;;;;;;;4.97;1.50;;;;;;;;;;5046810;28;20203;-90
2023/07/10 12:09:38;;;;;;;1.40;1.30;;;;;;;;;;5046390;28;20238;-90
2023/07/10 12:12:11;;;;;;;1.43;1.13;;;;;;;;;;5047045;28;20210;-89
2023/07/10 12:14:45;;;;;;;2.97;1.43;;;;;;;;;;5050636;28;20205;-90
2023/07/10 12:17:30;;;;;;;2.10;1.63;;;;;;;;;;5047693;28;20217;-89
2023/07/10 12:20:19;;;;;;;4.53;1.20;;;;;;;;;;5041686;28;20209;-88
2023/07/10 12:22:48;;;;;;;3.37;1.57;;;;;;;;;;5042577;28;20211;-88
2023/07/10 12:25:19;;;;;;;2.10;1.43;;;;;;;;;;5049708;28;20201;-91
2023/07/10 12:27:49;;;;;;;3.23;1.80;;;;;;;;;;5050682;28;20230;-90
2023/07/10 12:30:24;;;;;;;2.37;1.03;;;;;;;;;;5054748;28;20202;-91
2023/07/10 12:32:54;;;;;;;3.90;1.70;;;;;;;;;;5042086;28;20216;-91
2023/07/10 12:35:28;;;;;;;3.00;2.00;;;;;;;;;;5046591;28;20199;-84
2023/07/10 12:37:57;;;;;;;1.67;1.57;;;;;;;;;;5045168;28;20236;-88
2023/07/10 12:40:26;;;;;;;1.57;1.47;;;;;;;;;;5044170;28;20214;-86
2023/07/10 12:42:54;;;;;;;7.73;1.67;;;;;;;;;;5044740;28;20211;-88
2023/07/10 12:45:32;;;;;;;1.17;1.07;;;;;;;;;;5045840;28;20212;-85
2023/07/10 12:48:10;;;;;;;1.00;1.00;;;;;;;;;;5041750;28;20232;-88
2023/07/10 12:50:44;;;;;;;0.87;0.87;;;;;;;;;;5042579;28;20216;-89
2023/07/10 12:53:19;;;;;;;2.23;1.40;;;;;;;;;;5051311;28;20211;-88
2023/07/10 12:55:49;;;;;;;2.37;2.17;;;;;;;;;;5049943;28;20284;-88
2023/07/10 12:58:35;;;;;;;5.97;2.43;;;;;;;;;;5044579;28;20303;-88
2023/07/10 13:01:16;;;;;;;4.07;2.10;;;;;;;;;;5046713;28;20403;-86
2023/07/10 13:03:45;;;;;;;1.57;1.23;;;;;;;;;;5050409;28;20209;-87
2023/07/10 13:06:18;;;;;;;2.40;1.97;;;;;;;;;;5046309;28;20207;-89
2023/07/10 13:08:48;;;;;;;0.67;0.53;;;;;;;;;;5049446;28;20208;-88
2023/07/10 13:11:21;;;;;;;6.40;2.00;;;;;;;;;;5046935;28;20214;-88
2023/07/10 13:14:08;;;;;;;5.00;1.20;;;;;;;;;;5048104;28;20215;-86
2023/07/10 13:16:44;;;;;;;8.17;2.00;;;;;;;;;;5047980;28;20246;-88
2023/07/10 13:19:13;;;;;;;1.73;1.63;;;;;;;;;;5044668;28;20318;-86
2023/07/10 13:21:46;;;;;;;1.40;1.27;;;;;;;;;;5052266;28;20200;-86
2023/07/10 13:24:15;;;;;;;2.80;1.20;;;;;;;;;;5050151;28;20210;-88
2023/07/10 13:26:45;;;;;;;1.30;0.87;;;;;;;;;;5046381;28;20277;-86
2023/07/10 13:29:15;;;;;;;2.57;1.03;;;;;;;;;;5053953;28;20223;-84
2023/07/10 13:31:43;;;;;;;0.50;0.50;;;;;;;;;;5050093;28;20201;-83
2023/07/10 13:34:12;;;;;;;2.20;1.10;;;;;;;;;;5046651;28;20219;-83
2023/07/10 13:36:41;;;;;;;0.80;0.80;;;;;;;;;;5049516;28;20260;-83
2023/07/10 13:39:15;;;;;;;3.90;1.43;;;;;;;;;;5053060;28;20212;-83
2023/07/10 13:41:47;;;;;;;1.40;1.10;;;;;;;;;;5049782;28;20202;-82
2023/07/10 13:44:16;;;;;;;2.70;0.90;;;;;;;;;;5042733;28;20214;-82
2023/07/10 13:46:44;;;;;;;1.10;0.80;;;;;;;;;;5050361;28;20211;-84
2023/07/10 13:49:14;;;;;;;1.00;1.00;;;;;;;;;;5046839;28;20283;-85
2023/07/10 13:51:43;;;;;;;2.33;1.23;;;;;;;;;;5046878;28;20256;-87
2023/07/10 13:54:15;;;;;;;1.40;0.87;;;;;;;;;;5047472;28;20225;-85
2023/07/10 13:56:46;;;;;;;3.90;1.17;;;;;;;;;;5046839;28;20216;-85
2023/07/10 13:59:16;;;;;;;1.70;0.97;;;;;;;;;;5050006;28;20220;-85
2023/07/10 14:01:45;;;;;;;3.50;1.23;;;;;;;;;;5046865;28;20300;-85
2023/07/10 14:04:15;;;;;;;3.97;1.80;;;;;;;;;;5052025;28;20248;-84
2023/07/10 14:06:46;;;;;;;2.67;1.40;;;;;;;;;;5054627;28;20255;-84
2023/07/10 14:09:17;;;;;;;0.57;0.57;;;;;;;;;;5047393;28;20203;-84
2023/07/10 14:11:47;;;;;;;2.03;1.70;;;;;;;;;;5043315;28;20267;-84
2023/07/10 14:14:17;;;;;;;0.57;0.50;;;;;;;;;;5034809;28;20261;-85
2023/07/10 14:16:47;;;;;;;0.93;0.70;;;;;;;;;;5034452;28;20229;-85
2023/07/10 14:19:16;;;;;;;0.90;0.90;;;;;;;;;;5044127;28;20239;-85
2023/07/10 14:21:45;;;;;;;0.77;0.77;;;;;;;;;;5043573;28;20214;-85
2023/07/10 14:24:14;;;;;;;1.80;0.70;;;;;;;;;;5054104;28;20215;-85
2023/07/10 14:26:43;;;;;;;0.93;0.80;;;;;;;;;;5054250;28;20218;-84
2023/07/10 14:29:16;;;;;;;1.50;0.70;;;;;;;;;;5053640;28;20219;-84
2023/07/10 14:31:45;;;;;;;0.93;0.60;;;;;;;;;;5054429;28;20198;-85
2023/07/10 14:34:14;;;;;;;1.07;0.97;;;;;;;;;;5053535;28;20213;-84
2023/07/10 14:36:44;;;;;;;1.03;1.03;;;;;;;;;;5053230;28;20248;-84
2023/07/10 14:39:13;;;;;;;0.40;0.40;;;;;;;;;;5053916;28;20253;-84
2023/07/10 14:41:44;;;;;;;0.60;0.60;;;;;;;;;;5054569;28;20205;-84
2023/07/10 14:44:13;;;;;;;1.37;0.50;;;;;;;;;;5053417;28;20206;-85
2023/07/10 14:46:44;;;;;;;1.90;0.60;;;;;;;;;;5053367;28;20197;-84
2023/07/10 14:49:29;;;;;;;0.73;0.73;;;;;;;;;;5034339;28;20210;-84
2023/07/10 14:51:58;;;;;;;1.40;0.93;;;;;;;;;;5042864;28;20202;-85
2023/07/10 14:54:27;;;;;;;9.33;2.00;;;;;;;;;;5053316;28;20274;-85
2023/07/10 14:56:56;;;;;;;1.33;0.93;;;;;;;;;;5053580;28;20236;-85
2023/07/10 14:59:28;;;;;;;0.80;0.80;;;;;;;;;;5053916;28;20197;-85
2023/07/10 15:02:11;;;;;;;0.53;0.53;;;;;;;;;;5053632;28;20202;-85
2023/07/10 15:04:40;;;;;;;1.63;0.80;;;;;;;;;;5053505;28;20198;-85
2023/07/10 15:07:12;;;;;;;0.63;0.53;;;;;;;;;;5053480;28;20211;-85